Isle Of Palms, South Carolina
Current Conditions -  °F | °C
As of 12:15 PM on Friday 28 Nov 2014 (Local Time) from KLRO Reporting Station
Clear Clear  
Wind Chill: 42°   Ceiling: Unl
Heat Index: 46°   Visibility: 10mi
Dew Point: 23°   Wind: 8mph
Humidity: 40%   Direction: 330°NNW
Pressure: 30.37"   Gusts: NA
Location:  32.79°N, 79.79°W
Report Text: KLRO 281715Z AUTO 33007KT 10SM CLR 08/M05 A3037 RMK AO2 PWINO PNO
Loading
Personal Weather Stations






























Interactive Weather Map New forecast layout! Learn more

10-Day Weather Forecast

Advertisements
Track Severe Weather on mobile